Portada
METAR-TAF:

METAR-TAF

Aeropuertos :

Aeropuerto Zenata

Tremecén, Argelia

latitud: 35-01N, longitud: 001-28W, altitud: 247 m

Observación

El informe se hizo hace 19 minutos, a las 17:30 UTC
Viento 9 kt del norte-noroeste
Temperatura 23°C
Humedad 53%
Presión 1020 hPa
Visibilidad 10 km o más
Escasas nubes a una altura de 2600 ft

METAR: DAON 261730Z 33009KT 9999 FEW026 23/13 Q1020

Hora: 18:49 (17:49 UTC)

Pronóstico

El informe se hizo hace 49 minutos, a las 17:00 UTC
Pronóstico válido del 26 a las 18 UTC al 27 a las 18 UTC
Viento 10 kt del norte-noroeste
Visibilidad 10 km o más
Escasas nubes a una altura de 2600 ft
Evolucionando progresivamente
del 26 a las 22 UTC al 26 a las 24 UTC
Viento 2 kt con dirección variable
Evolucionando progresivamente
del 27 a las 10 UTC al 27 a las 12 UTC
Viento 10 kt del norte

TAF: DAON 261700Z 2618/2718 34010KT 9999 FEW026 BECMG 2622/2624 VRB02KT BECMG 2710/2712 36010KT

Observaciones y pronósticos meteorológicos de más de 4000 aeropuertos (mensajes METAR y TAF).

Los puntos amarillos y rojos representan las estaciones disponibles.

Ponga el ratón en el punto deseado para ver el nombre de la estación.

Haga clic para ver las observaciones y los pronósticos meteorológicos.

Para cambiar el mapa : haga clic en los botones verdes con una cruz de color negro para hacer un zoom, en el botón verde con un guión para alejar o en las flechas verdes para mapas adyacentes.


METAR-TAF: